Tuesday, January 23, 2018, 7:25 AM EST
Back to Local

KGON, Groton/new London Airport

Location: Groton, CT, United States Lat: 41.333
Local Time: 7:25 AM EST (12:25 GMT) Lon: -72.05
Time Zone: US/Eastern Elev: 9 ft

Show me the last for .
Show Coded

Time T Td Feel RH Dir Speed Gust Alt SLP Vis Weather Sky Remarks
2018-01-23 06:51 46 45 43 93 140° 7 - 29.89 - 8 BKN004 BKN029 OVC036 None
2018-01-23 05:56 47 46 - 96 - Calm - 29.92 29.92 9 BKN005 BKN023 OVC033 None
2018-01-23 05:20 47 46 44 96 120° 7 - 29.93 - 9 OVC005 None
2018-01-23 04:56 46 45 45 95 90° 3 - 29.94 29.94 6 BR OVC003 None
2018-01-23 03:56 46 45 42 95 90° 7 - 29.97 29.97 3 BR OVC003 1-hr Precip Total: Trace
6-hr Precip Total (4am): 0.00"
2018-01-23 03:37 46 44 42 92 90° 7 - 29.99 - 6 -RA BR OVC003 1-hr Precip Total: Trace
2018-01-23 03:30 46 45 42 95 80° 7 - 29.99 - 2 -RA BR OVC003 1-hr Precip Total: Trace
2018-01-23 02:56 45 44 42 96 60° 6 - 30.00 30.00 0 -RA FG VV002 1-hr Precip Total: Trace
2018-01-23 01:56 42 41 39 95 30° 5 - 30.04 30.04 0 FG VV003 1-hr Precip Total: Trace
2018-01-23 01:20 42 41 39 95 30° 5 - 30.07 - 0 FG VV003 None
2018-01-23 00:56 42 41 38 95 30° 6 - 30.08 30.08 0 FG VV003 6-hr Precip Total (1am): 0.00"
6-hr Min Temp (1am): 41.0°F
6-hr Max Temp (1am): 43.0°F
2018-01-23 00:35 42 41 39 95 10° 5 - 30.09 - 0 FG VV003 None
2018-01-22 23:56 42 41 38 95 40° 6 - 30.10 30.10 0 BR OVC002 24-hr Min Temp (12am): 34.0°F
24-hr Max Temp (12am): 44.1°F
2018-01-22 23:42 43 41 39 92 60° 6 - 30.10 - 1 BR OVC002 None
2018-01-22 23:21 42 40 38 91 70° 7 - 30.10 - 2 BR OVC003 None
2018-01-22 22:56 42 40 37 91 70° 9 - 30.11 30.11 4 BR OVC003 None
2018-01-22 22:25 41 39 35 92 90° 9 - 30.13 - 6 BR OVC004 None
2018-01-22 21:56 41 39 34 92 80° 13 - 30.15 30.14 6 BR OVC005 6-hr Precip Total (10pm): 0.00"
2018-01-22 20:56 41 39 34 92 80° 12 - 30.17 30.17 7 OVC006 1-hr Precip Total: Trace
2018-01-22 19:56 42 38 36 85 80° 10 - 30.19 30.18 5 -RA BR OVC008 1-hr Precip Total: Trace
2018-01-22 19:37 41 38 33 88 80° 14 - 30.18 - 7 -RA OVC009 1-hr Precip Total: Trace
2018-01-22 18:56 41 37 34 85 70° 13 - 30.19 30.19 8 OVC013 1-hr Precip Total: Trace
6-hr Precip Total (7pm): 0.00"
6-hr Min Temp (7pm): 39.9°F
6-hr Max Temp (7pm): 43.0°F
2018-01-22 17:56 41 36 34 82 70° 12 - 30.20 30.20 7 -RA OVC013 1-hr Precip Total: Trace
2018-01-22 16:56 42 36 38 78 70° 7 - 30.20 30.19 9 OVC013 None
2018-01-22 15:56 43 36 37 76 60° 12 - 30.19 30.19 9 OVC013 None
2018-01-22 14:56 43 37 37 79 60° 10 - 30.19 30.19 8 OVC013 None
2018-01-22 13:56 43 38 38 82 60° 9 - 30.19 30.19 9 OVC012 None
2018-01-22 12:56 43 38 37 82 80° 12 - 30.19 30.18 7 OVC012 6-hr Min Temp (1pm): 39.0°F
6-hr Max Temp (1pm): 44.1°F
2018-01-22 12:10 43 39 37 85 80° 12 - 30.20 - 7 OVC014 None
2018-01-22 11:56 43 39 38 85 70° 9 - 30.20 30.20 7 OVC015 None
2018-01-22 10:56 43 39 38 85 30° 8 - 30.23 30.23 6 BR OVC017 None
2018-01-22 09:56 42 38 37 85 90° 8 - 30.24 30.23 6 BR OVC019 None
2018-01-22 08:56 41 38 36 88 90° 8 - 30.22 30.22 5 BR OVC024 None
2018-01-22 07:56 40 37 34 89 80° 8 - 30.21 30.21 5 BR OVC027 None
2018-01-22 07:31 40 36 35 85 100° 7 - 30.20 - 7 OVC028 None

Support USWX by starting your Amazon purchase here.